Terminal Aerodrome Forecast
Issued by NWS

Home | Current Version | Previous Version | Text Only | Print | Product List | Glossary On
Versions: 1 2 3 4 5 6 7 8 9 10 11 12
843
FTUS44 KLIX 212349
TAFGPT
TAF
KGPT 212349Z 2200/2224 12011G18KT P6SM FEW013
     FM220500 12009KT P6SM OVC020
     FM221000 13009KT P6SM BKN012 OVC035
     FM221200 14010G18KT P6SM VCSH OVC015
     FM221500 16013G22KT 6SM SHRA VCTS BKN012 OVC022CB
     FM222000 18014G22KT P6SM VCSH OVC020
     FM222300 20012G22KT P6SM BKN015=

USA.gov is the U.S. government's official web portal to all federal, state and local government web resources and services.